METAR AND TAF INFORMATION
METAR FOR SVPA
ADDS - METARS form results

(2254 UTC 24 February 2020)
Data provider http://aviationweather.gov/metar/data/
 
METAR text: SVPA 242202Z AUTO 08004KT NCD 37/19 Q1007
Conditions at: SVPA (PUERTO AYACUCHO , VE) observed 2202 UTC 24 February 2020
Temperature: 37.0°C (99°F)
Dewpoint: 19.0°C (66°F) [RH = 35%]
Pressure (altimeter): 29.73 inches Hg (1007.0 mb)
Winds: from the E (80 degrees) at 5 MPH (4 knots; 2.1 m/s)
Visibility: missing
Ceiling: at least 12,000 feet AGL
Clouds: sky clear below 12,000 feet AGL
Weather: no significant weather observed at this time

 AIRPORT MAP

 RUNWAY INFORMATION
Runway 04 Runway length 8272 ft Runway width 140 ft
Runway elevation 245 ft Runway displaced threshold 0 ft Runway heading 30
Runway 22 Runway length 8272 ft Runway width 140 ft
Runway elevation 244 ft Runway displaced threshold 0 ft Runway heading 210

 AIRPORT FREQUENCIES
Type TWR Name PUERTO AYA Frequency 118.3 MHZ

 AIRPORT NEAR NAVIGATION AIDS
Type VOR Name Puerto Ayacucho Frequency 112800 KHZ
Type NDB Name Puerto Ayacucho Frequency 375 KHZ